sensor_id;sensor_type;location;lat;lon;timestamp;pressure;altitude;pressure_sealevel;temperature;humidity
68654;BME280;55636;51.108;13.622;2023-03-04T00:00:28;100846.81;;;1.27;60.73
68654;BME280;55636;51.108;13.622;2023-03-04T00:01:31;100843.91;;;1.29;60.80
68654;BME280;55636;51.108;13.622;2023-03-04T00:02:33;100842.88;;;1.30;60.90
68654;BME280;55636;51.108;13.622;2023-03-04T00:03:35;100840.97;;;1.31;61.17
68654;BME280;55636;51.108;13.622;2023-03-04T00:04:38;100843.06;;;1.29;60.99
68654;BME280;55636;51.108;13.622;2023-03-04T00:05:40;100839.97;;;1.32;61.01
68654;BME280;55636;51.108;13.622;2023-03-04T00:06:42;100836.22;;;1.33;61.09
68654;BME280;55636;51.108;13.622;2023-03-04T00:07:45;100839.56;;;1.35;61.07
68654;BME280;55636;51.108;13.622;2023-03-04T00:08:47;100841.47;;;1.34;61.11
68654;BME280;55636;51.108;13.622;2023-03-04T00:09:49;100840.44;;;1.35;60.81
68654;BME280;55636;51.108;13.622;2023-03-04T00:10:54;100842.13;;;1.36;60.75
68654;BME280;55636;51.108;13.622;2023-03-04T00:11:56;100847.56;;;1.36;60.78
68654;BME280;55636;51.108;13.622;2023-03-04T00:12:58;100839.41;;;1.36;60.71
68654;BME280;55636;51.108;13.622;2023-03-04T00:14:00;100842.97;;;1.37;60.42
68654;BME280;55636;51.108;13.622;2023-03-04T00:15:03;100840.25;;;1.37;60.53
68654;BME280;55636;51.108;13.622;2023-03-04T00:16:05;100834.81;;;1.37;60.44
68654;BME280;55636;51.108;13.622;2023-03-04T00:17:08;100836.50;;;1.38;60.34
68654;BME280;55636;51.108;13.622;2023-03-04T00:18:10;100837.31;;;1.38;60.36
68654;BME280;55636;51.108;13.622;2023-03-04T00:19:12;100838.19;;;1.39;60.30
68654;BME280;55636;51.108;13.622;2023-03-04T00:20:14;100839.22;;;1.38;60.30
68654;BME280;55636;51.108;13.622;2023-03-04T00:21:16;100831.06;;;1.38;60.18
68654;BME280;55636;51.108;13.622;2023-03-04T00:22:19;100830.03;;;1.39;60.05
68654;BME280;55636;51.108;13.622;2023-03-04T00:23:21;100833.78;;;1.38;60.17
68654;BME280;55636;51.108;13.622;2023-03-04T00:24:23;100831.88;;;1.38;60.20
68654;BME280;55636;51.108;13.622;2023-03-04T00:25:26;100830.19;;;1.37;60.08
68654;BME280;55636;51.108;13.622;2023-03-04T00:26:28;100830.03;;;1.39;60.03
68654;BME280;55636;51.108;13.622;2023-03-04T00:27:30;100836.50;;;1.38;60.25
68654;BME280;55636;51.108;13.622;2023-03-04T00:28:32;100829.16;;;1.38;60.06
68654;BME280;55636;51.108;13.622;2023-03-04T00:29:35;100829.34;;;1.37;60.13
68654;BME280;55636;51.108;13.622;2023-03-04T00:30:37;100831.06;;;1.38;60.02
68654;BME280;55636;51.108;13.622;2023-03-04T00:31:39;100832.06;;;1.37;59.96
68654;BME280;55636;51.108;13.622;2023-03-04T00:32:43;100829.16;;;1.38;60.08
68654;BME280;55636;51.108;13.622;2023-03-04T00:33:46;100834.59;;;1.38;60.07
68654;BME280;55636;51.108;13.622;2023-03-04T00:34:48;100829.53;;;1.35;60.02
68654;BME280;55636;51.108;13.622;2023-03-04T00:35:50;100829.34;;;1.37;60.14
68654;BME280;55636;51.108;13.622;2023-03-04T00:36:53;100815.94;;;1.35;60.02
68654;BME280;55636;51.108;13.622;2023-03-04T00:37:56;100820.34;;;1.36;60.08
68654;BME280;55636;51.108;13.622;2023-03-04T00:38:59;100823.44;;;1.33;60.06
68654;BME280;55636;51.108;13.622;2023-03-04T00:40:03;100816.75;;;1.36;60.26
68654;BME280;55636;51.108;13.622;2023-03-04T00:41:05;100820.50;;;1.35;60.11
68654;BME280;55636;51.108;13.622;2023-03-04T00:42:08;100816.97;;;1.34;60.21
68654;BME280;55636;51.108;13.622;2023-03-04T00:43:12;100816.75;;;1.36;60.20
68654;BME280;55636;51.108;13.622;2023-03-04T00:44:14;100821.56;;;1.34;60.20
68654;BME280;55636;51.108;13.622;2023-03-04T00:45:17;100820.50;;;1.35;60.11
68654;BME280;55636;51.108;13.622;2023-03-04T00:46:20;100815.06;;;1.35;60.15
68654;BME280;55636;51.108;13.622;2023-03-04T00:47:22;100806.91;;;1.35;60.21
68654;BME280;55636;51.108;13.622;2023-03-04T00:48:25;100812.34;;;1.35;60.19
68654;BME280;55636;51.108;13.622;2023-03-04T00:49:27;100809.81;;;1.33;60.16
68654;BME280;55636;51.108;13.622;2023-03-04T00:50:30;100808.97;;;1.33;60.17
68654;BME280;55636;51.108;13.622;2023-03-04T00:51:33;100806.25;;;1.33;60.25
68654;BME280;55636;51.108;13.622;2023-03-04T00:52:35;100801.84;;;1.32;60.09
68654;BME280;55636;51.108;13.622;2023-03-04T00:53:37;100802.69;;;1.32;60.06
68654;BME280;55636;51.108;13.622;2023-03-04T00:54:41;100803.75;;;1.31;60.24
68654;BME280;55636;51.108;13.622;2023-03-04T00:55:43;100806.47;;;1.31;60.26
68654;BME280;55636;51.108;13.622;2023-03-04T00:56:45;100800.16;;;1.31;60.31
68654;BME280;55636;51.108;13.622;2023-03-04T00:57:48;100810.84;;;1.32;60.25
68654;BME280;55636;51.108;13.622;2023-03-04T00:58:50;100810.00;;;1.32;60.32
68654;BME280;55636;51.108;13.622;2023-03-04T00:59:54;100800.16;;;1.31;60.20
68654;BME280;55636;51.108;13.622;2023-03-04T01:00:58;100800.16;;;1.31;60.31
68654;BME280;55636;51.108;13.622;2023-03-04T01:02:00;100803.91;;;1.30;60.31
68654;BME280;55636;51.108;13.622;2023-03-04T01:03:04;100805.59;;;1.31;60.26
68654;BME280;55636;51.108;13.622;2023-03-04T01:04:06;100799.13;;;1.32;60.41
68654;BME280;55636;51.108;13.622;2023-03-04T01:05:09;100794.72;;;1.31;60.37
68654;BME280;55636;51.108;13.622;2023-03-04T01:06:11;100797.44;;;1.31;60.30
68654;BME280;55636;51.108;13.622;2023-03-04T01:07:14;100793.88;;;1.30;60.21
68654;BME280;55636;51.108;13.622;2023-03-04T01:08:16;100794.72;;;1.31;60.44
68654;BME280;55636;51.108;13.622;2023-03-04T01:09:18;100789.25;;;1.31;60.19
68654;BME280;55636;51.108;13.622;2023-03-04T01:10:21;100791.97;;;1.31;60.34
68654;BME280;55636;51.108;13.622;2023-03-04T01:11:23;100790.97;;;1.32;60.23
68654;BME280;55636;51.108;13.622;2023-03-04T01:12:25;100787.41;;;1.31;60.22
68654;BME280;55636;51.108;13.622;2023-03-04T01:13:30;100789.06;;;1.32;60.27
68654;BME280;55636;51.108;13.622;2023-03-04T01:14:32;100786.53;;;1.31;60.20
68654;BME280;55636;51.108;13.622;2023-03-04T01:15:35;100789.25;;;1.31;60.15
68654;BME280;55636;51.108;13.622;2023-03-04T01:16:39;100774.63;;;1.32;60.17
68654;BME280;55636;51.108;13.622;2023-03-04T01:17:45;100785.50;;;1.32;60.15
68654;BME280;55636;51.108;13.622;2023-03-04T01:18:49;100780.06;;;1.32;60.25
68654;BME280;55636;51.108;13.622;2023-03-04T01:19:51;100777.34;;;1.32;60.18
68654;BME280;55636;51.108;13.622;2023-03-04T01:20:54;100769.19;;;1.32;60.15
68654;BME280;55636;51.108;13.622;2023-03-04T01:21:56;100770.00;;;1.32;60.31
68654;BME280;55636;51.108;13.622;2023-03-04T01:22:58;100765.44;;;1.33;60.29
68654;BME280;55636;51.108;13.622;2023-03-04T01:24:00;100769.19;;;1.32;60.15
68654;BME280;55636;51.108;13.622;2023-03-04T01:25:03;100760.81;;;1.33;60.10
68654;BME280;55636;51.108;13.622;2023-03-04T01:26:06;100766.47;;;1.32;60.33
68654;BME280;55636;51.108;13.622;2023-03-04T01:27:08;100764.56;;;1.32;60.34
68654;BME280;55636;51.108;13.622;2023-03-04T01:28:11;100758.09;;;1.33;60.16
68654;BME280;55636;51.108;13.622;2023-03-04T01:29:13;100760.81;;;1.33;60.22
68654;BME280;55636;51.108;13.622;2023-03-04T01:30:15;100757.25;;;1.33;60.14
68654;BME280;55636;51.108;13.622;2023-03-04T01:31:17;100752.84;;;1.32;60.20
68654;BME280;55636;51.108;13.622;2023-03-04T01:32:20;100750.13;;;1.32;60.25
68654;BME280;55636;51.108;13.622;2023-03-04T01:33:23;100751.16;;;1.31;60.12
68654;BME280;55636;51.108;13.622;2023-03-04T01:34:25;100741.97;;;1.32;60.22
68654;BME280;55636;51.108;13.622;2023-03-04T01:35:28;100757.47;;;1.31;60.22
68654;BME280;55636;51.108;13.622;2023-03-04T01:36:31;100749.09;;;1.33;60.14
68654;BME280;55636;51.108;13.622;2023-03-04T01:37:33;100755.56;;;1.32;60.06
68654;BME280;55636;51.108;13.622;2023-03-04T01:38:35;100748.44;;;1.31;60.20
68654;BME280;55636;51.108;13.622;2023-03-04T01:39:37;100742.97;;;1.31;60.12
68654;BME280;55636;51.108;13.622;2023-03-04T01:40:40;100742.97;;;1.31;60.06
68654;BME280;55636;51.108;13.622;2023-03-04T01:41:42;100742.97;;;1.31;60.13
68654;BME280;55636;51.108;13.622;2023-03-04T01:42:45;100748.44;;;1.31;59.99
68654;BME280;55636;51.108;13.622;2023-03-04T01:43:48;100738.56;;;1.30;59.98
68654;BME280;55636;51.108;13.622;2023-03-04T01:44:51;100744.00;;;1.30;59.98
68654;BME280;55636;51.108;13.622;2023-03-04T01:45:54;100744.00;;;1.30;60.05
68654;BME280;55636;51.108;13.622;2023-03-04T01:46:57;100741.28;;;1.30;60.05
68654;BME280;55636;51.108;13.622;2023-03-04T01:48:00;100743.19;;;1.29;60.20
68654;BME280;55636;51.108;13.622;2023-03-04T01:49:02;100736.91;;;1.29;60.04
68654;BME280;55636;51.108;13.622;2023-03-04T01:50:10;100735.84;;;1.30;60.03
68654;BME280;55636;51.108;13.622;2023-03-04T01:51:19;100735.84;;;1.30;60.11
68654;BME280;55636;51.108;13.622;2023-03-04T01:52:22;100730.41;;;1.30;60.09
68654;BME280;55636;51.108;13.622;2023-03-04T01:53:26;100736.91;;;1.29;60.11
68654;BME280;55636;51.108;13.622;2023-03-04T01:54:28;100730.41;;;1.30;60.08
68654;BME280;55636;51.108;13.622;2023-03-04T01:55:31;100729.56;;;1.29;60.17
68654;BME280;55636;51.108;13.622;2023-03-04T01:56:37;100730.41;;;1.30;60.17
68654;BME280;55636;51.108;13.622;2023-03-04T01:57:39;100740.47;;;1.29;59.96
68654;BME280;55636;51.108;13.622;2023-03-04T01:58:42;100738.41;;;1.31;60.06
68654;BME280;55636;51.108;13.622;2023-03-04T01:59:45;100738.41;;;1.31;60.02
68654;BME280;55636;51.108;13.622;2023-03-04T02:00:48;100733.97;;;1.30;59.96
68654;BME280;55636;51.108;13.622;2023-03-04T02:01:53;100732.28;;;1.29;60.08
68654;BME280;55636;51.108;13.622;2023-03-04T02:02:59;100733.13;;;1.30;60.07
68654;BME280;55636;51.108;13.622;2023-03-04T02:04:02;100730.41;;;1.30;59.97
68654;BME280;55636;51.108;13.622;2023-03-04T02:05:05;100731.25;;;1.30;60.00
68654;BME280;55636;51.108;13.622;2023-03-04T02:06:07;100729.38;;;1.31;60.02
68654;BME280;55636;51.108;13.622;2023-03-04T02:07:09;100729.38;;;1.31;60.07
68654;BME280;55636;51.108;13.622;2023-03-04T02:08:12;100733.78;;;1.32;59.90
68654;BME280;55636;51.108;13.622;2023-03-04T02:09:18;100721.41;;;1.29;59.94
68654;BME280;55636;51.108;13.622;2023-03-04T02:10:21;100727.31;;;1.33;60.05
68654;BME280;55636;51.108;13.622;2023-03-04T02:11:25;100721.22;;;1.31;59.89
68654;BME280;55636;51.108;13.622;2023-03-04T02:12:28;100715.75;;;1.31;60.05
68654;BME280;55636;51.108;13.622;2023-03-04T02:13:32;100716.63;;;1.31;59.94
68654;BME280;55636;51.108;13.622;2023-03-04T02:14:37;100724.59;;;1.33;59.86
68654;BME280;55636;51.108;13.622;2023-03-04T02:15:42;100712.84;;;1.32;59.87
68654;BME280;55636;51.108;13.622;2023-03-04T02:16:47;100716.44;;;1.33;59.80
68654;BME280;55636;51.108;13.622;2023-03-04T02:17:50;100707.59;;;1.31;59.82
68654;BME280;55636;51.108;13.622;2023-03-04T02:18:53;100711.19;;;1.31;59.88
68654;BME280;55636;51.108;13.622;2023-03-04T02:20:06;100704.69;;;1.32;59.82
68654;BME280;55636;51.108;13.622;2023-03-04T02:22:22;100719.16;;;1.33;59.98
68654;BME280;55636;51.108;13.622;2023-03-04T02:25:49;100703.00;;;1.31;59.86
68654;BME280;55636;51.108;13.622;2023-03-04T02:26:54;100704.69;;;1.32;59.89
68654;BME280;55636;51.108;13.622;2023-03-04T02:27:56;100709.28;;;1.32;59.88
68654;BME280;55636;51.108;13.622;2023-03-04T02:28:59;100701.97;;;1.32;59.91
68654;BME280;55636;51.108;13.622;2023-03-04T02:30:04;100708.25;;;1.33;59.76
68654;BME280;55636;51.108;13.622;2023-03-04T02:31:21;100711.63;;;1.35;59.73
68654;BME280;55636;51.108;13.622;2023-03-04T02:32:25;100701.13;;;1.32;59.86
68654;BME280;55636;51.108;13.622;2023-03-04T02:33:28;100706.38;;;1.33;59.76
68654;BME280;55636;51.108;13.622;2023-03-04T02:34:33;100700.94;;;1.33;59.88
68654;BME280;55636;51.108;13.622;2023-03-04T02:35:38;100710.78;;;1.34;59.76
68654;BME280;55636;51.108;13.622;2023-03-04T02:36:41;100708.91;;;1.35;59.76
68654;BME280;55636;51.108;13.622;2023-03-04T02:37:45;100702.81;;;1.33;59.82
68654;BME280;55636;51.108;13.622;2023-03-04T02:38:49;100696.34;;;1.34;59.81
68654;BME280;55636;51.108;13.622;2023-03-04T02:39:52;100695.69;;;1.32;59.94
68654;BME280;55636;51.108;13.622;2023-03-04T02:40:56;100701.97;;;1.32;59.74
68654;BME280;55636;51.108;13.622;2023-03-04T02:42:00;100691.25;;;1.31;59.92
68654;BME280;55636;51.108;13.622;2023-03-04T02:43:04;100689.56;;;1.30;59.84
68654;BME280;55636;51.108;13.622;2023-03-04T02:44:23;100694.84;;;1.31;59.96
68654;BME280;55636;51.108;13.622;2023-03-04T02:46:40;100686.69;;;1.31;59.78
68654;BME280;55636;51.108;13.622;2023-03-04T02:47:42;100685.81;;;1.31;59.95
68654;BME280;55636;51.108;13.622;2023-03-04T02:48:45;100692.28;;;1.30;59.92
68654;BME280;55636;51.108;13.622;2023-03-04T02:49:47;100674.94;;;1.31;59.88
68654;BME280;55636;51.108;13.622;2023-03-04T02:50:51;100674.94;;;1.31;59.92
68654;BME280;55636;51.108;13.622;2023-03-04T02:52:07;100688.53;;;1.31;59.84
68654;BME280;55636;51.108;13.622;2023-03-04T02:53:11;100680.56;;;1.29;59.92
68654;BME280;55636;51.108;13.622;2023-03-04T02:54:20;100678.88;;;1.28;59.95
68654;BME280;55636;51.108;13.622;2023-03-04T02:55:23;100676.16;;;1.28;59.87
68654;BME280;55636;51.108;13.622;2023-03-04T02:56:25;100670.72;;;1.28;59.89
68654;BME280;55636;51.108;13.622;2023-03-04T02:57:28;100675.31;;;1.27;59.97
68654;BME280;55636;51.108;13.622;2023-03-04T02:58:30;100669.69;;;1.29;59.95
68654;BME280;55636;51.108;13.622;2023-03-04T02:59:34;100672.41;;;1.29;60.01
68654;BME280;55636;51.108;13.622;2023-03-04T03:00:38;100677.84;;;1.29;59.98
68654;BME280;55636;51.108;13.622;2023-03-04T03:01:42;100667.78;;;1.30;59.79
68654;BME280;55636;51.108;13.622;2023-03-04T03:02:45;100666.97;;;1.29;59.89
68654;BME280;55636;51.108;13.622;2023-03-04T03:03:47;100665.25;;;1.28;59.98
68654;BME280;55636;51.108;13.622;2023-03-04T03:04:50;100662.53;;;1.28;60.00
68654;BME280;55636;51.108;13.622;2023-03-04T03:05:54;100665.25;;;1.28;59.91
68654;BME280;55636;51.108;13.622;2023-03-04T03:06:57;100657.31;;;1.26;60.04
68654;BME280;55636;51.108;13.622;2023-03-04T03:08:00;100662.75;;;1.26;60.07
68654;BME280;55636;51.108;13.622;2023-03-04T03:09:02;100660.84;;;1.27;60.03
68654;BME280;55636;51.108;13.622;2023-03-04T03:10:05;100662.75;;;1.26;60.07
68654;BME280;55636;51.108;13.622;2023-03-04T03:11:07;100661.06;;;1.25;59.98
68654;BME280;55636;51.108;13.622;2023-03-04T03:12:11;100664.63;;;1.26;60.10
68654;BME280;55636;51.108;13.622;2023-03-04T03:13:13;100663.56;;;1.27;60.07
68654;BME280;55636;51.108;13.622;2023-03-04T03:14:15;100653.75;;;1.26;59.97
68654;BME280;55636;51.108;13.622;2023-03-04T03:15:18;100645.59;;;1.26;60.08
68654;BME280;55636;51.108;13.622;2023-03-04T03:16:20;100656.47;;;1.26;60.06
68654;BME280;55636;51.108;13.622;2023-03-04T03:17:24;100660.84;;;1.27;59.95
68654;BME280;55636;51.108;13.622;2023-03-04T03:18:26;100660.84;;;1.27;59.91
68654;BME280;55636;51.108;13.622;2023-03-04T03:19:31;100659.81;;;1.28;60.09
68654;BME280;55636;51.108;13.622;2023-03-04T03:20:37;100653.53;;;1.27;60.05
68654;BME280;55636;51.108;13.622;2023-03-04T03:21:39;100649.13;;;1.26;59.94
68654;BME280;55636;51.108;13.622;2023-03-04T03:22:41;100652.88;;;1.25;59.90
68654;BME280;55636;51.108;13.622;2023-03-04T03:23:44;100657.31;;;1.26;59.98
68654;BME280;55636;51.108;13.622;2023-03-04T03:24:46;100650.16;;;1.25;60.10
68654;BME280;55636;51.108;13.622;2023-03-04T03:25:49;100662.53;;;1.28;59.95
68654;BME280;55636;51.108;13.622;2023-03-04T03:26:51;100657.31;;;1.26;60.04
68654;BME280;55636;51.108;13.622;2023-03-04T03:27:53;100656.47;;;1.26;59.92
68654;BME280;55636;51.108;13.622;2023-03-04T03:28:57;100653.53;;;1.27;60.05
68654;BME280;55636;51.108;13.622;2023-03-04T03:30:03;100659.19;;;1.26;60.09
68654;BME280;55636;51.108;13.622;2023-03-04T03:31:11;100656.47;;;1.26;60.01
68654;BME280;55636;51.108;13.622;2023-03-04T03:32:13;100652.06;;;1.25;60.02
68654;BME280;55636;51.108;13.622;2023-03-04T03:33:15;100646.59;;;1.25;59.93
68654;BME280;55636;51.108;13.622;2023-03-04T03:34:18;100652.69;;;1.27;59.97
68654;BME280;55636;51.108;13.622;2023-03-04T03:35:21;100652.69;;;1.27;60.05
68654;BME280;55636;51.108;13.622;2023-03-04T03:36:24;100647.44;;;1.25;60.02
68654;BME280;55636;51.108;13.622;2023-03-04T03:37:26;100644.72;;;1.25;60.14
68654;BME280;55636;51.108;13.622;2023-03-04T03:38:29;100651.84;;;1.26;60.10
68654;BME280;55636;51.108;13.622;2023-03-04T03:39:31;100643.03;;;1.24;60.11
68654;BME280;55636;51.108;13.622;2023-03-04T03:40:35;100644.72;;;1.25;60.06
68654;BME280;55636;51.108;13.622;2023-03-04T03:41:37;100648.47;;;1.24;59.92
68654;BME280;55636;51.108;13.622;2023-03-04T03:42:39;100643.03;;;1.24;60.19
68654;BME280;55636;51.108;13.622;2023-03-04T03:43:42;100652.06;;;1.25;60.10
68654;BME280;55636;51.108;13.622;2023-03-04T03:44:44;100654.56;;;1.26;60.12
68654;BME280;55636;51.108;13.622;2023-03-04T03:45:46;100657.31;;;1.26;60.08
68654;BME280;55636;51.108;13.622;2023-03-04T03:46:48;100647.44;;;1.25;60.21
68654;BME280;55636;51.108;13.622;2023-03-04T03:47:51;100645.38;;;1.27;60.15
68654;BME280;55636;51.108;13.622;2023-03-04T03:48:53;100647.44;;;1.25;60.32
68654;BME280;55636;51.108;13.622;2023-03-04T03:49:55;100643.88;;;1.25;60.18
68654;BME280;55636;51.108;13.622;2023-03-04T03:50:58;100648.47;;;1.24;60.15
68654;BME280;55636;51.108;13.622;2023-03-04T03:52:00;100649.13;;;1.26;60.21
68654;BME280;55636;51.108;13.622;2023-03-04T03:53:03;100657.31;;;1.26;60.10
68654;BME280;55636;51.108;13.622;2023-03-04T03:54:05;100649.13;;;1.26;60.31
68654;BME280;55636;51.108;13.622;2023-03-04T03:55:08;100650.16;;;1.25;60.04
68654;BME280;55636;51.108;13.622;2023-03-04T03:56:10;100654.78;;;1.25;60.21
68654;BME280;55636;51.108;13.622;2023-03-04T03:57:14;100645.59;;;1.26;60.20
68654;BME280;55636;51.108;13.622;2023-03-04T03:58:16;100652.69;;;1.27;60.19
68654;BME280;55636;51.108;13.622;2023-03-04T03:59:18;100650.16;;;1.25;60.01
68654;BME280;55636;51.108;13.622;2023-03-04T04:00:21;100659.00;;;1.27;60.09
68654;BME280;55636;51.108;13.622;2023-03-04T04:01:23;100652.69;;;1.27;60.12
68654;BME280;55636;51.108;13.622;2023-03-04T04:02:25;100654.38;;;1.28;60.07
68654;BME280;55636;51.108;13.622;2023-03-04T04:03:28;100658.78;;;1.29;60.08
68654;BME280;55636;51.108;13.622;2023-03-04T04:04:32;100649.97;;;1.27;60.05
68654;BME280;55636;51.108;13.622;2023-03-04T04:05:34;100655.41;;;1.27;60.13
68654;BME280;55636;51.108;13.622;2023-03-04T04:06:36;100665.25;;;1.28;60.07
68654;BME280;55636;51.108;13.622;2023-03-04T04:07:38;100659.81;;;1.28;60.16
68654;BME280;55636;51.108;13.622;2023-03-04T04:08:42;100654.38;;;1.28;60.15
68654;BME280;55636;51.108;13.622;2023-03-04T04:09:44;100658.78;;;1.29;60.04
68654;BME280;55636;51.108;13.622;2023-03-04T04:10:47;100660.69;;;1.29;60.00
68654;BME280;55636;51.108;13.622;2023-03-04T04:11:49;100657.97;;;1.29;60.14
68654;BME280;55636;51.108;13.622;2023-03-04T04:12:51;100652.53;;;1.29;60.05
68654;BME280;55636;51.108;13.622;2023-03-04T04:13:53;100655.88;;;1.31;59.99
68654;BME280;55636;51.108;13.622;2023-03-04T04:14:55;100654.19;;;1.30;60.15
68654;BME280;55636;51.108;13.622;2023-03-04T04:15:58;100658.59;;;1.31;59.94
68654;BME280;55636;51.108;13.622;2023-03-04T04:17:00;100655.88;;;1.31;60.02
68654;BME280;55636;51.108;13.622;2023-03-04T04:18:03;100655.88;;;1.31;60.00
68654;BME280;55636;51.108;13.622;2023-03-04T04:19:06;100654.00;;;1.31;59.95
68654;BME280;55636;51.108;13.622;2023-03-04T04:20:08;100661.97;;;1.33;60.04
68654;BME280;55636;51.108;13.622;2023-03-04T04:21:12;100665.53;;;1.33;60.00
68654;BME280;55636;51.108;13.622;2023-03-04T04:22:17;100652.13;;;1.32;59.99
68654;BME280;55636;51.108;13.622;2023-03-04T04:23:20;100656.53;;;1.33;60.10
68654;BME280;55636;51.108;13.622;2023-03-04T04:24:24;100656.75;;;1.31;59.95
68654;BME280;55636;51.108;13.622;2023-03-04T04:25:26;100652.13;;;1.32;60.11
68654;BME280;55636;51.108;13.622;2023-03-04T04:26:28;100654.00;;;1.31;60.02
68654;BME280;55636;51.108;13.622;2023-03-04T04:27:30;100654.84;;;1.32;59.99
68654;BME280;55636;51.108;13.622;2023-03-04T04:28:32;100660.28;;;1.32;60.03
68654;BME280;55636;51.108;13.622;2023-03-04T04:29:35;100653.81;;;1.33;59.96
68654;BME280;55636;51.108;13.622;2023-03-04T04:30:37;100663.69;;;1.34;59.96
68654;BME280;55636;51.108;13.622;2023-03-04T04:31:40;100660.97;;;1.34;59.87
68654;BME280;55636;51.108;13.622;2023-03-04T04:32:43;100667.44;;;1.33;59.93
68654;BME280;55636;51.108;13.622;2023-03-04T04:33:46;100649.19;;;1.33;60.03
68654;BME280;55636;51.108;13.622;2023-03-04T04:34:48;100655.31;;;1.35;60.01
68654;BME280;55636;51.108;13.622;2023-03-04T04:35:50;100657.84;;;1.37;59.91
68654;BME280;55636;51.108;13.622;2023-03-04T04:36:52;100652.41;;;1.37;59.90
68654;BME280;55636;51.108;13.622;2023-03-04T04:37:55;100654.44;;;1.35;59.97
68654;BME280;55636;51.108;13.622;2023-03-04T04:38:57;100659.72;;;1.36;59.92
68654;BME280;55636;51.108;13.622;2023-03-04T04:39:59;100657.84;;;1.37;60.04
68654;BME280;55636;51.108;13.622;2023-03-04T04:41:02;100645.25;;;1.36;59.81
68654;BME280;55636;51.108;13.622;2023-03-04T04:42:04;100660.34;;;1.38;59.97
68654;BME280;55636;51.108;13.622;2023-03-04T04:43:06;100650.50;;;1.37;59.97
68654;BME280;55636;51.108;13.622;2023-03-04T04:44:09;100653.22;;;1.37;59.91
68654;BME280;55636;51.108;13.622;2023-03-04T04:45:13;100650.34;;;1.39;59.83
68654;BME280;55636;51.108;13.622;2023-03-04T04:46:17;100651.16;;;1.39;59.88
68654;BME280;55636;51.108;13.622;2023-03-04T04:47:19;100653.22;;;1.37;59.89
68654;BME280;55636;51.108;13.622;2023-03-04T04:48:22;100644.03;;;1.38;59.74
68654;BME280;55636;51.108;13.622;2023-03-04T04:49:24;100654.09;;;1.38;59.89
68654;BME280;55636;51.108;13.622;2023-03-04T04:50:26;100649.47;;;1.38;59.88
68654;BME280;55636;51.108;13.622;2023-03-04T04:51:29;100647.78;;;1.37;59.94
68654;BME280;55636;51.108;13.622;2023-03-04T04:52:31;100648.84;;;1.36;59.87
68654;BME280;55636;51.108;13.622;2023-03-04T04:53:33;100649.66;;;1.37;59.79
68654;BME280;55636;51.108;13.622;2023-03-04T04:54:36;100651.56;;;1.36;59.82
68654;BME280;55636;51.108;13.622;2023-03-04T04:55:38;100650.50;;;1.37;59.93
68654;BME280;55636;51.108;13.622;2023-03-04T04:56:40;100644.22;;;1.37;59.93
68654;BME280;55636;51.108;13.622;2023-03-04T04:57:43;100646.94;;;1.37;59.86
68654;BME280;55636;51.108;13.622;2023-03-04T04:58:46;100643.19;;;1.38;59.93
68654;BME280;55636;51.108;13.622;2023-03-04T04:59:49;100642.16;;;1.39;59.91
68654;BME280;55636;51.108;13.622;2023-03-04T05:00:51;100650.34;;;1.39;59.82
68654;BME280;55636;51.108;13.622;2023-03-04T05:01:53;100643.00;;;1.39;60.03
68654;BME280;55636;51.108;13.622;2023-03-04T05:02:55;100653.69;;;1.41;59.91
68654;BME280;55636;51.108;13.622;2023-03-04T05:03:57;100644.69;;;1.40;59.95
68654;BME280;55636;51.108;13.622;2023-03-04T05:05:01;100644.50;;;1.42;59.79
68654;BME280;55636;51.108;13.622;2023-03-04T05:06:05;100646.19;;;1.43;59.86
68654;BME280;55636;51.108;13.622;2023-03-04T05:07:07;100648.91;;;1.43;59.90
68654;BME280;55636;51.108;13.622;2023-03-04T05:08:10;100648.91;;;1.43;59.90
68654;BME280;55636;51.108;13.622;2023-03-04T05:09:12;100643.25;;;1.44;59.91
68654;BME280;55636;51.108;13.622;2023-03-04T05:10:14;100640.53;;;1.44;59.88
68654;BME280;55636;51.108;13.622;2023-03-04T05:11:17;100641.38;;;1.45;59.83
68654;BME280;55636;51.108;13.622;2023-03-04T05:12:20;100644.28;;;1.43;59.80
68654;BME280;55636;51.108;13.622;2023-03-04T05:13:22;100640.34;;;1.46;59.70
68654;BME280;55636;51.108;13.622;2023-03-04T05:14:25;100643.06;;;1.46;59.86
68654;BME280;55636;51.108;13.622;2023-03-04T05:15:27;100636.78;;;1.46;59.84
68654;BME280;55636;51.108;13.622;2023-03-04T05:16:29;100637.63;;;1.46;59.87
68654;BME280;55636;51.108;13.622;2023-03-04T05:17:33;100647.47;;;1.47;59.73
68654;BME280;55636;51.108;13.622;2023-03-04T05:18:36;100642.03;;;1.47;59.71
68654;BME280;55636;51.108;13.622;2023-03-04T05:19:38;100631.97;;;1.48;59.83
68654;BME280;55636;51.108;13.622;2023-03-04T05:20:40;100642.88;;;1.48;59.86
68654;BME280;55636;51.108;13.622;2023-03-04T05:21:42;100635.56;;;1.48;59.83
68654;BME280;55636;51.108;13.622;2023-03-04T05:22:45;100635.34;;;1.50;59.74
68654;BME280;55636;51.108;13.622;2023-03-04T05:23:47;100627.38;;;1.48;59.66
68654;BME280;55636;51.108;13.622;2023-03-04T05:24:50;100631.78;;;1.49;59.76
68654;BME280;55636;51.108;13.622;2023-03-04T05:25:54;100636.19;;;1.50;59.80
68654;BME280;55636;51.108;13.622;2023-03-04T05:26:57;100634.50;;;1.49;59.85
68654;BME280;55636;51.108;13.622;2023-03-04T05:27:59;100630.75;;;1.50;59.70
68654;BME280;55636;51.108;13.622;2023-03-04T05:29:03;100630.75;;;1.50;59.71
68654;BME280;55636;51.108;13.622;2023-03-04T05:30:06;100635.16;;;1.51;59.63
68654;BME280;55636;51.108;13.622;2023-03-04T05:31:08;100637.88;;;1.51;59.77
68654;BME280;55636;51.108;13.622;2023-03-04T05:32:11;100637.88;;;1.51;59.77
68654;BME280;55636;51.108;13.622;2023-03-04T05:33:14;100630.53;;;1.52;59.63
68654;BME280;55636;51.108;13.622;2023-03-04T05:34:17;100621.53;;;1.51;59.73